Time;durP1;ratioP1;P1;durP2;ratioP2;P2;SDS_P1;SDS_P2;PMS_P1;PMS_P2;Temp;Humidity;BMP_temperature;BMP_pressure;BME280_temperature;BME280_humidity;BME280_pressure;Samples;Min_cycle;Max_cycle;Signal;HPM_P1;HPM_P2
2022/12/05 00:01:26;;;;;;;757.10;189.15;;;4.70;99.90;;;;;;5136600;27;20027;-63
2022/12/05 00:03:55;;;;;;;460.40;151.88;;;4.60;99.90;;;;;;5136527;27;20058;-62
2022/12/05 00:06:22;;;;;;;427.15;149.02;;;4.60;99.90;;;;;;5136526;27;20022;-62
2022/12/05 00:08:48;;;;;;;834.40;181.50;;;4.60;99.90;;;;;;5136379;27;20083;-62
2022/12/05 00:11:16;;;;;;;687.30;159.77;;;4.60;99.90;;;;;;5136411;27;20111;-63
2022/12/05 00:13:43;;;;;;;471.05;161.98;;;4.60;99.90;;;;;;5136384;27;20476;-62
2022/12/05 00:16:11;;;;;;;393.73;147.60;;;4.60;99.90;;;;;;5136200;27;20488;-62
2022/12/05 00:18:37;;;;;;;635.70;189.88;;;4.60;99.90;;;;;;5136446;27;20106;-63
2022/12/05 00:21:03;;;;;;;466.27;151.80;;;4.60;99.90;;;;;;5136225;27;20125;-62
2022/12/05 00:23:30;;;;;;;346.77;130.38;;;4.60;99.90;;;;;;5136106;27;20381;-62
2022/12/05 00:25:55;;;;;;;430.98;143.63;;;4.60;99.90;;;;;;5136302;27;20473;-62
2022/12/05 00:28:21;;;;;;;526.35;158.80;;;4.60;99.90;;;;;;5135962;27;20076;-62
2022/12/05 00:30:47;;;;;;;435.83;150.85;;;4.50;99.90;;;;;;5136085;27;20023;-62
2022/12/05 00:33:13;;;;;;;414.13;151.88;;;4.50;99.90;;;;;;5135704;27;20072;-62
2022/12/05 00:35:39;;;;;;;309.30;134.25;;;4.50;99.90;;;;;;5136121;27;20031;-62
2022/12/05 00:38:05;;;;;;;342.15;138.57;;;4.60;99.90;;;;;;5135863;27;20084;-62
2022/12/05 00:40:33;;;;;;;353.38;140.70;;;4.60;99.90;;;;;;5135840;27;20038;-62
2022/12/05 00:42:59;;;;;;;412.30;149.50;;;4.70;99.90;;;;;;5135936;27;20058;-62
2022/12/05 00:45:25;;;;;;;339.02;136.52;;;4.60;99.90;;;;;;5135867;27;20397;-62
2022/12/05 00:47:51;;;;;;;436.10;163.63;;;4.50;99.90;;;;;;5135755;27;20426;-62
2022/12/05 00:50:17;;;;;;;467.40;173.75;;;4.40;99.90;;;;;;5135928;27;20305;-62
2022/12/05 00:52:43;;;;;;;383.58;152.77;;;4.50;99.90;;;;;;5135517;27;20027;-62
2022/12/05 00:55:08;;;;;;;473.20;171.40;;;4.60;99.90;;;;;;5135677;27;20103;-63
2022/12/05 00:57:34;;;;;;;478.35;180.00;;;4.80;99.90;;;;;;5135715;27;20157;-62
2022/12/05 01:00:00;;;;;;;434.50;165.75;;;4.70;99.90;;;;;;5135532;27;20027;-62
2022/12/05 01:02:26;;;;;;;442.00;171.27;;;4.80;99.90;;;;;;5117269;28;20046;-62
2022/12/05 01:04:52;;;;;;;407.38;163.75;;;4.80;99.90;;;;;;5135655;28;20069;-62
2022/12/05 01:07:18;;;;;;;550.50;199.52;;;4.80;99.90;;;;;;5135532;28;20106;-62
2022/12/05 01:09:44;;;;;;;385.77;159.60;;;4.70;99.90;;;;;;5135587;28;20024;-62
2022/12/05 01:12:10;;;;;;;496.83;186.70;;;4.70;99.90;;;;;;5117082;28;20046;-62
2022/12/05 01:14:36;;;;;;;526.85;193.70;;;4.60;99.90;;;;;;5135782;28;20031;-62
2022/12/05 01:17:02;;;;;;;509.73;193.82;;;4.60;99.90;;;;;;5135393;28;20058;-63
2022/12/05 01:19:30;;;;;;;371.90;155.45;;;4.60;99.90;;;;;;5135344;28;20034;-62
2022/12/05 01:21:57;;;;;;;435.80;173.93;;;4.50;99.90;;;;;;5135386;28;20031;-62
2022/12/05 01:24:25;;;;;;;424.58;172.25;;;4.60;99.90;;;;;;5135573;28;20019;-62
2022/12/05 01:26:51;;;;;;;672.33;230.70;;;4.70;99.90;;;;;;5135427;28;20049;-62
2022/12/05 01:29:20;;;;;;;384.38;160.55;;;4.70;99.90;;;;;;5135423;28;20023;-62
2022/12/05 01:31:46;;;;;;;393.80;153.70;;;4.60;99.90;;;;;;5135387;28;20547;-62
2022/12/05 01:34:15;;;;;;;454.15;172.55;;;4.70;99.90;;;;;;5135378;28;20334;-62
2022/12/05 01:36:41;;;;;;;587.58;217.02;;;4.80;99.90;;;;;;5135344;28;20034;-62
2022/12/05 01:39:09;;;;;;;484.58;190.18;;;4.60;99.90;;;;;;5135348;28;20034;-62
2022/12/05 01:41:39;;;;;;;473.50;187.50;;;4.60;99.90;;;;;;5135339;28;20031;-62
2022/12/05 01:44:09;;;;;;;392.88;164.70;;;4.70;99.90;;;;;;5135231;27;20019;-62
2022/12/05 01:46:38;;;;;;;596.83;215.07;;;4.70;99.90;;;;;;5138894;27;20023;-62
2022/12/05 01:49:06;;;;;;;397.45;163.77;;;4.60;99.90;;;;;;5138989;27;20027;-62
2022/12/05 01:51:33;;;;;;;445.77;177.07;;;4.50;99.90;;;;;;5139119;27;20490;-62
2022/12/05 01:54:00;;;;;;;466.35;182.65;;;4.50;99.90;;;;;;5139035;27;20087;-62
2022/12/05 01:56:27;;;;;;;412.23;159.77;;;4.50;99.90;;;;;;5138845;27;20024;-62
2022/12/05 01:58:54;;;;;;;537.33;199.25;;;4.60;99.90;;;;;;5139096;27;20480;-62
2022/12/05 02:01:20;;;;;;;589.38;208.52;;;4.50;99.90;;;;;;5138808;27;20037;-62
2022/12/05 02:03:50;;;;;;;377.02;163.20;;;4.30;99.90;;;;;;5138843;27;20577;-62
2022/12/05 02:06:17;;;;;;;374.50;162.52;;;4.40;99.90;;;;;;5138847;27;20027;-61
2022/12/05 02:08:44;;;;;;;495.48;196.20;;;4.40;99.90;;;;;;5138797;27;20020;-63
2022/12/05 02:11:10;;;;;;;547.35;211.43;;;4.50;99.90;;;;;;5138841;27;20493;-62
2022/12/05 02:13:42;;;;;;;563.47;215.75;;;4.30;99.90;;;;;;5138899;27;20035;-62
2022/12/05 02:16:13;;;;;;;479.58;190.15;;;4.40;99.90;;;;;;5138412;27;20553;-62
2022/12/05 02:19:18;;;;;;;492.73;201.38;;;4.50;99.90;;;;;;5138567;27;20034;-62
2022/12/05 02:22:11;;;;;;;468.85;188.25;;;4.30;99.90;;;;;;5034963;28;20042;-62
2022/12/05 02:25:25;;;;;;;426.52;176.55;;;4.40;99.90;;;;;;5034822;28;20136;-62
2022/12/05 02:28:18;;;;;;;458.90;190.82;;;4.50;99.90;;;;;;4975930;28;20102;-62
2022/12/05 02:30:49;;;;;;;578.75;227.57;;;4.50;99.90;;;;;;4975913;28;20038;-62
2022/12/05 02:33:32;;;;;;;476.88;195.13;;;4.60;99.90;;;;;;4975892;28;20031;-62
2022/12/05 02:36:06;;;;;;;536.05;220.02;;;4.60;99.90;;;;;;4975847;28;20039;-62
2022/12/05 02:38:51;;;;;;;482.90;199.45;;;4.50;99.90;;;;;;4975709;28;20377;-62
2022/12/05 02:41:38;;;;;;;497.65;206.05;;;4.40;99.90;;;;;;4975747;28;20113;-63
2022/12/05 02:44:27;;;;;;;508.00;212.18;;;4.50;99.90;;;;;;4975803;28;20539;-62
2022/12/05 02:46:54;;;;;;;472.85;200.15;;;4.60;99.90;;;;;;4975157;28;20042;-63
2022/12/05 02:49:29;;;;;;;538.40;227.35;;;4.60;99.90;;;;;;4975575;28;20647;-62
2022/12/05 02:51:58;;;;;;;561.75;242.23;;;4.70;99.90;;;;;;5000204;28;20587;-62
2022/12/05 02:54:31;;;;;;;498.80;214.70;;;4.70;99.90;;;;;;5074268;28;20037;-62
2022/12/05 02:56:59;;;;;;;509.55;213.90;;;4.70;99.90;;;;;;5074066;28;20028;-62
2022/12/05 02:59:25;;;;;;;562.80;238.75;;;4.70;99.90;;;;;;5126408;27;20039;-62
2022/12/05 03:01:51;;;;;;;538.67;233.10;;;4.70;99.90;;;;;;5137788;27;20029;-62
2022/12/05 03:04:19;;;;;;;541.30;235.07;;;4.70;99.90;;;;;;5137728;27;20019;-62
2022/12/05 03:06:53;;;;;;;535.58;223.27;;;4.60;99.90;;;;;;5137559;27;20023;-62
2022/12/05 03:09:19;;;;;;;560.05;232.45;;;4.60;99.90;;;;;;5137470;27;20380;-63
2022/12/05 03:11:52;;;;;;;526.40;225.60;;;4.60;99.90;;;;;;5137533;27;20098;-62
2022/12/05 03:14:26;;;;;;;492.35;217.20;;;4.60;99.90;;;;;;5137375;27;20044;-62
2022/12/05 03:16:56;;;;;;;481.83;208.68;;;4.60;99.90;;;;;;5137351;27;20047;-62
2022/12/05 03:19:57;;;;;;;443.85;195.82;;;4.60;99.90;;;;;;5137303;27;20110;-62
2022/12/05 03:22:36;;;;;;;588.35;243.38;;;4.50;99.90;;;;;;5137374;27;20023;-62
2022/12/05 03:25:03;;;;;;;493.98;210.88;;;4.30;99.90;;;;;;5137282;27;20034;-63
2022/12/05 03:27:52;;;;;;;456.38;198.55;;;4.40;99.90;;;;;;5137291;27;20557;-62
2022/12/05 03:30:22;;;;;;;683.50;274.88;;;4.40;99.90;;;;;;5137079;27;20034;-62
2022/12/05 03:33:02;;;;;;;616.75;245.77;;;4.30;99.90;;;;;;5137201;27;20027;-62
2022/12/05 03:35:50;;;;;;;496.30;216.63;;;4.10;99.90;;;;;;5136994;27;20029;-62
2022/12/05 03:38:20;;;;;;;711.80;280.40;;;4.20;99.90;;;;;;5137038;27;20035;-62
2022/12/05 03:41:04;;;;;;;456.97;197.97;;;4.10;99.90;;;;;;5136984;27;20326;-62
2022/12/05 03:43:45;;;;;;;447.58;191.93;;;4.20;99.90;;;;;;5136649;27;20094;-62
2022/12/05 03:46:15;;;;;;;;;;;4.30;99.90;;;;;;5137344;27;20045;-62
2022/12/05 03:48:58;;;;;;;443.77;196.52;;;4.30;99.90;;;;;;5136747;27;19930;-62
2022/12/05 03:51:44;;;;;;;434.45;186.25;;;4.40;99.90;;;;;;5136786;27;20027;-63
2022/12/05 03:54:26;;;;;;;451.17;200.82;;;4.40;99.90;;;;;;5136743;27;20484;-63
2022/12/05 03:57:06;;;;;;;444.52;178.98;;;4.50;99.90;;;;;;5136701;27;20311;-62
2022/12/05 03:59:58;;;;;;;474.83;193.40;;;4.50;99.90;;;;;;5136534;27;20030;-62
2022/12/05 04:03:13;;;;;;;642.42;237.93;;;4.40;99.90;;;;;;5131470;27;20040;-62
2022/12/05 04:05:50;;;;;;;414.33;167.68;;;4.20;99.90;;;;;;5128085;27;20035;-62
2022/12/05 04:08:19;;;;;;;380.60;159.18;;;4.20;99.90;;;;;;5135876;27;20031;-62
2022/12/05 04:10:48;;;;;;;365.98;152.05;;;4.10;99.90;;;;;;5136130;27;20028;-62
2022/12/05 04:13:21;;;;;;;492.30;187.40;;;4.20;99.90;;;;;;5136405;27;20059;-62
2022/12/05 04:18:50;;;;;;;548.70;218.15;;;3.90;99.90;;;;;;5136130;27;20049;-62
2022/12/05 04:21:37;;;;;;;421.10;171.43;;;3.90;99.90;;;;;;5136172;27;20027;-62
2022/12/05 04:27:28;;;;;;;520.55;199.13;;;4.10;99.90;;;;;;5136083;27;20034;-62
2022/12/05 04:30:18;;;;;;;378.98;160.85;;;4.10;99.90;;;;;;5136165;27;20023;-62
2022/12/05 04:33:00;;;;;;;654.38;238.88;;;4.20;99.90;;;;;;5135913;27;20080;-62
2022/12/05 04:35:58;;;;;;;480.73;183.93;;;4.10;99.90;;;;;;5135929;27;20031;-62
2022/12/05 04:38:31;;;;;;;429.38;172.20;;;4.10;99.90;;;;;;5135994;27;20031;-62
2022/12/05 04:41:03;;;;;;;455.23;180.30;;;4.10;99.90;;;;;;5117273;27;20035;-62
2022/12/05 04:43:34;;;;;;;363.42;154.73;;;4.00;99.90;;;;;;5135738;27;20058;-62
2022/12/05 04:46:03;;;;;;;345.15;147.98;;;3.90;99.90;;;;;;5135541;27;20496;-62
2022/12/05 04:48:30;;;;;;;495.60;179.13;;;3.90;99.90;;;;;;5117451;27;20038;-62
2022/12/05 04:50:57;;;;;;;400.55;157.35;;;3.80;99.90;;;;;;5135753;27;20384;-63
2022/12/05 04:53:27;;;;;;;449.25;169.63;;;3.90;99.90;;;;;;5135647;27;20034;-62
2022/12/05 04:55:57;;;;;;;438.15;165.98;;;3.90;99.90;;;;;;5135650;27;20027;-62
2022/12/05 04:58:26;;;;;;;573.60;199.95;;;3.90;99.90;;;;;;5135652;27;20031;-62
2022/12/05 05:00:58;;;;;;;477.98;185.05;;;3.80;99.90;;;;;;5135396;27;20035;-62
2022/12/05 05:03:29;;;;;;;457.45;177.85;;;3.80;99.90;;;;;;5135788;27;20358;-62
2022/12/05 05:05:56;;;;;;;450.38;178.45;;;3.90;99.90;;;;;;5135487;28;20019;-62
2022/12/05 05:08:26;;;;;;;579.58;203.00;;;3.70;99.90;;;;;;5135466;28;20011;-62
2022/12/05 05:11:27;;;;;;;695.25;245.23;;;3.70;99.90;;;;;;5135647;28;20038;-62
2022/12/05 05:13:54;;;;;;;545.55;203.93;;;3.70;99.90;;;;;;5135502;28;20027;-62
2022/12/05 05:16:29;;;;;;;428.52;170.32;;;3.80;99.90;;;;;;5116917;28;20051;-62
2022/12/05 05:18:55;;;;;;;347.55;153.85;;;3.60;99.90;;;;;;5136173;27;20056;-62
2022/12/05 05:21:29;;;;;;;438.88;176.38;;;3.60;99.90;;;;;;5139511;27;20027;-63
2022/12/05 05:23:55;;;;;;;338.35;150.80;;;3.60;99.90;;;;;;5139691;27;20015;-62
2022/12/05 05:26:22;;;;;;;432.33;179.05;;;3.60;99.90;;;;;;5139540;27;20030;-62
2022/12/05 05:28:49;;;;;;;580.75;226.00;;;3.60;99.90;;;;;;5139582;27;20027;-62
2022/12/05 05:31:16;;;;;;;338.55;166.65;;;3.40;99.90;;;;;;5139550;27;20023;-62
2022/12/05 05:33:42;;;;;;;547.50;214.57;;;3.40;99.90;;;;;;5139518;27;20057;-62
2022/12/05 05:36:12;;;;;;;529.92;193.35;;;3.20;99.90;;;;;;5139209;27;20023;-62
2022/12/05 05:38:44;;;;;;;298.65;141.98;;;3.10;99.90;;;;;;5139421;27;20023;-63
2022/12/05 05:41:15;;;;;;;319.63;144.35;;;3.10;99.90;;;;;;5139170;27;20030;-61
2022/12/05 05:43:42;;;;;;;341.80;151.20;;;3.30;99.90;;;;;;5139192;27;20413;-62
2022/12/05 05:46:09;;;;;;;376.00;158.02;;;3.40;99.90;;;;;;5139288;27;20019;-62
2022/12/05 05:48:35;;;;;;;422.25;172.43;;;3.30;99.90;;;;;;5139236;27;20253;-62
2022/12/05 05:51:03;;;;;;;411.85;190.05;;;3.10;99.90;;;;;;5139086;27;20031;-62
2022/12/05 05:53:29;;;;;;;400.70;181.50;;;3.20;99.90;;;;;;5139000;27;20031;-62
2022/12/05 05:55:55;;;;;;;435.48;215.52;;;3.20;99.90;;;;;;5138979;27;20400;-62
2022/12/05 05:58:22;;;;;;;420.48;213.75;;;3.30;99.90;;;;;;5138919;27;20353;-62
2022/12/05 06:00:47;;;;;;;477.00;223.43;;;3.40;99.90;;;;;;5138909;27;20019;-62
2022/12/05 06:03:13;;;;;;;377.80;188.90;;;3.40;99.90;;;;;;5138755;27;20426;-62
2022/12/05 06:05:39;;;;;;;432.63;198.48;;;3.50;99.90;;;;;;5138784;27;20029;-63
2022/12/05 06:08:05;;;;;;;310.95;150.05;;;3.30;99.90;;;;;;5138714;27;20023;-62
2022/12/05 06:10:31;;;;;;;341.42;162.32;;;3.30;99.90;;;;;;5138669;27;20023;-62
2022/12/05 06:12:58;;;;;;;299.05;148.38;;;3.30;99.90;;;;;;5138273;27;20334;-62
2022/12/05 06:15:24;;;;;;;301.98;149.57;;;3.30;99.90;;;;;;5138465;27;20477;-62
2022/12/05 06:17:50;;;;;;;319.10;152.10;;;3.50;99.90;;;;;;5138558;27;20354;-62
2022/12/05 06:20:16;;;;;;;328.10;157.85;;;3.40;99.90;;;;;;5138326;27;20132;-62
2022/12/05 06:22:42;;;;;;;367.13;171.60;;;3.50;99.90;;;;;;5129021;27;20756;-62
2022/12/05 06:25:09;;;;;;;329.67;155.98;;;3.40;99.90;;;;;;5132167;27;20020;-62
2022/12/05 06:27:35;;;;;;;349.83;158.95;;;3.30;99.90;;;;;;5132315;27;20019;-61
2022/12/05 06:30:01;;;;;;;560.38;263.02;;;3.40;99.90;;;;;;5127648;27;20038;-61
2022/12/05 06:32:28;;;;;;;491.05;218.95;;;3.40;99.90;;;;;;5131698;27;20019;-62
2022/12/05 06:34:54;;;;;;;324.05;159.68;;;3.40;99.90;;;;;;5116211;28;20073;-61
2022/12/05 06:37:21;;;;;;;370.25;192.48;;;3.40;99.90;;;;;;5123298;27;20023;-62
2022/12/05 06:39:47;;;;;;;371.77;187.77;;;3.50;99.90;;;;;;5124179;27;20041;-62
2022/12/05 06:42:13;;;;;;;283.20;150.52;;;3.50;99.90;;;;;;5136664;27;20023;-62
2022/12/05 06:44:39;;;;;;;304.10;156.98;;;3.60;99.90;;;;;;5127580;27;20031;-61
2022/12/05 06:47:05;;;;;;;377.75;186.65;;;3.70;99.90;;;;;;5101329;28;20099;-62
2022/12/05 06:49:32;;;;;;;346.35;174.43;;;3.70;99.90;;;;;;5128444;27;20023;-62
2022/12/05 06:51:58;;;;;;;441.83;210.13;;;3.90;99.90;;;;;;5130815;27;20541;-63
2022/12/05 06:54:24;;;;;;;377.27;179.88;;;4.10;99.90;;;;;;5117639;28;20055;-62
2022/12/05 06:56:50;;;;;;;364.98;178.50;;;4.10;99.90;;;;;;5125808;27;20058;-62
2022/12/05 06:59:16;;;;;;;364.60;172.05;;;4.20;99.90;;;;;;5118106;27;20035;-62
2022/12/05 07:01:42;;;;;;;359.80;175.50;;;4.50;99.90;;;;;;5130481;27;20026;-62
2022/12/05 07:04:19;;;;;;;342.33;171.95;;;4.60;99.90;;;;;;5127624;27;20045;-62
2022/12/05 07:06:47;;;;;;;365.33;185.40;;;4.80;99.90;;;;;;5116167;27;20083;-62
2022/12/05 07:09:14;;;;;;;393.42;190.93;;;4.70;99.90;;;;;;5126142;27;20021;-62
2022/12/05 07:11:40;;;;;;;394.83;199.23;;;4.80;99.90;;;;;;5131310;27;20472;-62
2022/12/05 07:14:08;;;;;;;430.60;218.18;;;4.80;99.90;;;;;;5128113;27;20047;-62
2022/12/05 07:16:35;;;;;;;383.90;202.55;;;4.80;99.90;;;;;;5119277;27;20048;-63
2022/12/05 07:19:01;;;;;;;437.70;216.40;;;4.80;99.90;;;;;;5128889;27;20027;-62
2022/12/05 07:21:27;;;;;;;427.73;215.32;;;5.00;99.90;;;;;;5134625;27;20023;-63
2022/12/05 07:23:58;;;;;;;493.63;248.63;;;5.00;99.90;;;;;;5127971;27;20029;-62
2022/12/05 07:26:25;;;;;;;427.52;218.20;;;5.10;99.90;;;;;;5125115;27;20103;-62
2022/12/05 07:28:54;;;;;;;468.15;233.40;;;5.10;99.90;;;;;;5126996;27;20019;-62
2022/12/05 07:31:21;;;;;;;418.35;210.05;;;5.20;99.90;;;;;;5128270;27;20164;-62
2022/12/05 07:33:51;;;;;;;413.30;211.70;;;5.30;99.90;;;;;;5126241;27;20476;-63
2022/12/05 07:36:19;;;;;;;395.05;200.32;;;5.50;99.90;;;;;;5127379;27;20027;-62
2022/12/05 07:38:45;;;;;;;434.45;217.43;;;5.50;99.90;;;;;;5132780;27;20050;-64
2022/12/05 07:41:31;;;;;;;419.88;203.40;;;5.50;99.90;;;;;;5132648;27;20066;-63
2022/12/05 07:43:59;;;;;;;425.42;212.88;;;5.60;99.90;;;;;;5129105;27;20027;-63
2022/12/05 07:46:27;;;;;;;452.52;224.50;;;5.70;99.90;;;;;;5132295;27;20019;-63
2022/12/05 07:48:54;;;;;;;315.45;159.75;;;5.70;99.90;;;;;;5130217;27;20023;-63
2022/12/05 07:51:20;;;;;;;289.77;148.70;;;5.80;99.90;;;;;;5126577;27;20030;-63
2022/12/05 07:53:47;;;;;;;331.15;165.10;;;5.80;99.90;;;;;;5124360;27;20031;-63
2022/12/05 07:56:15;;;;;;;333.75;167.48;;;5.90;99.90;;;;;;5120885;27;20088;-63
2022/12/05 07:58:48;;;;;;;303.85;152.13;;;5.90;99.90;;;;;;5124667;27;20547;-63
2022/12/05 08:01:22;;;;;;;296.63;150.55;;;5.90;99.90;;;;;;5135585;27;20027;-63
2022/12/05 08:03:49;;;;;;;314.40;163.50;;;6.20;99.90;;;;;;5126125;27;20098;-63
2022/12/05 08:06:21;;;;;;;354.52;174.80;;;6.60;99.90;;;;;;5131363;27;20058;-64
2022/12/05 08:08:50;;;;;;;352.02;167.40;;;7.20;99.90;;;;;;5127706;27;20027;-64
2022/12/05 08:11:22;;;;;;;333.80;171.80;;;7.80;99.90;;;;;;5129764;27;20106;-64
2022/12/05 08:13:48;;;;;;;305.50;158.82;;;8.40;99.90;;;;;;5129007;27;20019;-64
2022/12/05 08:16:21;;;;;;;315.92;156.43;;;8.80;99.90;;;;;;5135364;27;20425;-64
2022/12/05 08:18:47;;;;;;;303.00;155.90;;;9.10;99.90;;;;;;5128202;27;20034;-64
2022/12/05 08:21:16;;;;;;;306.63;156.60;;;9.00;99.90;;;;;;5120935;27;20069;-64
2022/12/05 08:23:43;;;;;;;338.08;175.73;;;8.90;99.90;;;;;;5132624;27;20045;-65
2022/12/05 08:26:16;;;;;;;370.38;191.77;;;8.50;99.90;;;;;;5128159;27;20020;-64
2022/12/05 08:28:43;;;;;;;382.52;199.48;;;8.60;99.90;;;;;;5127419;27;20023;-64
2022/12/05 08:31:10;;;;;;;372.40;191.52;;;8.60;99.90;;;;;;5127556;27;20061;-64
2022/12/05 08:33:37;;;;;;;345.38;185.05;;;8.70;99.90;;;;;;5128862;27;20042;-65
2022/12/05 08:36:05;;;;;;;355.85;187.23;;;8.90;99.90;;;;;;5124712;27;20032;-64
2022/12/05 08:38:31;;;;;;;411.80;211.68;;;9.10;99.90;;;;;;5124470;27;20030;-64
2022/12/05 08:41:03;;;;;;;414.33;220.95;;;9.30;99.90;;;;;;5133683;27;20376;-64
2022/12/05 08:43:30;;;;;;;447.08;230.32;;;9.50;99.90;;;;;;5133680;27;20734;-64
2022/12/05 08:45:56;;;;;;;442.00;233.75;;;9.70;99.90;;;;;;5121236;27;20024;-65
2022/12/05 08:48:23;;;;;;;424.48;230.43;;;9.50;99.90;;;;;;5129585;27;20019;-64
2022/12/05 08:50:49;;;;;;;432.85;233.45;;;9.70;99.90;;;;;;5125058;27;20027;-64
2022/12/05 08:53:16;;;;;;;462.95;251.35;;;9.60;99.90;;;;;;5130271;27;20019;-64
2022/12/05 08:55:42;;;;;;;432.33;235.63;;;9.70;99.90;;;;;;5123138;27;20091;-64
2022/12/05 08:58:08;;;;;;;444.13;238.68;;;10.00;99.90;;;;;;5126761;27;20027;-64
2022/12/05 09:00:34;;;;;;;462.92;246.90;;;10.10;99.90;;;;;;5123045;27;20038;-64
2022/12/05 09:02:59;;;;;;;432.65;237.50;;;10.30;99.90;;;;;;5134905;27;20027;-64
2022/12/05 09:05:25;;;;;;;445.65;245.38;;;10.50;99.90;;;;;;5116416;27;20024;-64
2022/12/05 09:07:51;;;;;;;441.05;236.93;;;10.80;99.90;;;;;;5119835;27;20682;-64
2022/12/05 09:10:17;;;;;;;413.65;234.98;;;10.90;99.90;;;;;;5128422;28;20038;-64
2022/12/05 09:12:43;;;;;;;418.73;235.88;;;10.90;99.90;;;;;;5122218;27;20028;-64
2022/12/05 09:15:11;;;;;;;430.00;230.82;;;10.90;99.90;;;;;;5120260;28;20035;-64
2022/12/05 09:17:37;;;;;;;422.45;226.07;;;10.90;99.90;;;;;;5115153;28;20028;-64
2022/12/05 09:20:05;;;;;;;387.98;216.52;;;11.20;99.90;;;;;;5134620;28;20035;-64
2022/12/05 09:22:32;;;;;;;354.55;198.98;;;11.60;99.90;;;;;;5103509;28;20019;-64
2022/12/05 09:24:59;;;;;;;321.67;177.30;;;13.10;99.90;;;;;;5129068;28;20019;-64
2022/12/05 09:27:27;;;;;;;303.58;167.98;;;14.00;95.80;;;;;;5135764;28;20031;-64
2022/12/05 09:29:53;;;;;;;280.60;158.68;;;14.40;93.20;;;;;;5132484;27;20389;-64
2022/12/05 09:32:19;;;;;;;301.65;162.10;;;14.30;90.80;;;;;;5124407;28;20290;-65
2022/12/05 09:34:45;;;;;;;292.38;159.25;;;14.30;90.50;;;;;;5124691;28;20062;-64
2022/12/05 09:37:11;;;;;;;286.40;150.05;;;14.20;90.60;;;;;;5127783;27;20059;-65
2022/12/05 09:39:37;;;;;;;270.25;145.13;;;14.10;90.50;;;;;;5121254;27;20025;-65
2022/12/05 09:42:24;;;;;;;245.32;140.10;;;14.10;91.20;;;;;;5125098;27;20036;-64
2022/12/05 09:45:19;;;;;;;251.38;134.70;;;14.20;90.50;;;;;;5120454;27;20047;-65
2022/12/05 09:47:48;;;;;;;264.60;146.75;;;14.10;89.50;;;;;;5129399;27;20019;-64
2022/12/05 09:50:24;;;;;;;240.50;135.27;;;13.60;90.70;;;;;;5134196;27;20027;-65
2022/12/05 09:53:08;;;;;;;251.18;134.82;;;14.20;92.00;;;;;;5131415;28;20024;-65
2022/12/05 09:55:45;;;;;;;227.88;130.55;;;14.20;89.30;;;;;;5126768;27;20112;-65
2022/12/05 09:58:25;;;;;;;235.82;133.98;;;14.50;90.70;;;;;;5130010;27;20400;-64
2022/12/05 10:00:58;;;;;;;233.50;133.75;;;14.90;88.80;;;;;;5128785;28;20107;-64
2022/12/05 10:03:31;;;;;;;224.32;131.52;;;15.30;87.90;;;;;;5124310;27;20485;-64
2022/12/05 10:06:17;;;;;;;217.35;127.25;;;16.20;87.60;;;;;;5126672;27;20187;-64
2022/12/05 10:08:52;;;;;;;217.77;125.43;;;16.70;83.90;;;;;;5131630;27;20176;-64
2022/12/05 10:11:50;;;;;;;208.18;122.03;;;17.30;80.40;;;;;;5136198;27;20030;-65
2022/12/05 10:14:29;;;;;;;211.75;118.15;;;17.60;78.50;;;;;;5129265;27;20066;-65
2022/12/05 10:17:01;;;;;;;203.05;118.47;;;18.10;79.00;;;;;;5107526;27;20048;-65
2022/12/05 10:19:40;;;;;;;186.13;112.93;;;18.50;76.00;;;;;;5111670;27;20086;-65
2022/12/05 10:22:21;;;;;;;212.10;114.80;;;19.00;72.40;;;;;;5104593;27;20024;-65
2022/12/05 10:24:50;;;;;;;;;;;19.10;69.60;;;;;;5114877;27;20028;-65
2022/12/05 10:27:23;;;;;;;204.25;107.75;;;18.80;68.70;;;;;;5136210;27;19907;-65
2022/12/05 10:30:03;;;;;;;184.95;110.45;;;18.60;69.20;;;;;;5124030;27;20027;-65
2022/12/05 10:32:36;;;;;;;185.23;106.00;;;18.40;70.70;;;;;;5129135;27;20057;-65
2022/12/05 10:35:31;;;;;;;177.00;105.22;;;18.10;71.40;;;;;;5138408;27;20461;-65
2022/12/05 10:38:04;;;;;;;180.73;105.82;;;18.00;70.40;;;;;;5115727;27;20066;-66
2022/12/05 10:40:37;;;;;;;194.98;107.47;;;17.50;71.40;;;;;;5119064;27;20114;-67
2022/12/05 10:43:05;;;;;;;181.07;106.70;;;16.90;74.00;;;;;;5101728;28;20450;-67
2022/12/05 10:45:31;;;;;;;187.07;105.38;;;16.70;76.80;;;;;;5105869;27;20049;-67
2022/12/05 10:47:57;;;;;;;181.52;108.20;;;16.50;77.70;;;;;;5117723;28;20024;-67
2022/12/05 10:50:37;;;;;;;184.02;110.38;;;16.30;78.60;;;;;;5114410;28;20028;-67
2022/12/05 10:53:06;;;;;;;178.23;112.68;;;16.10;81.20;;;;;;5119191;27;20039;-67
2022/12/05 10:55:39;;;;;;;206.55;119.70;;;16.10;81.00;;;;;;5121006;27;20039;-67
2022/12/05 10:58:26;;;;;;;183.77;112.32;;;16.20;81.00;;;;;;5132748;27;20035;-67
2022/12/05 11:00:56;;;;;;;189.63;120.40;;;16.80;81.00;;;;;;5127332;27;20030;-67
2022/12/05 11:03:32;;;;;;;184.85;116.57;;;17.00;80.20;;;;;;5129547;27;20025;-67
2022/12/05 11:06:20;;;;;;;188.45;115.78;;;17.50;79.70;;;;;;5099467;28;20020;-67
2022/12/05 11:08:54;;;;;;;183.25;118.07;;;17.80;76.50;;;;;;5117286;27;20015;-67
2022/12/05 11:11:32;;;;;;;191.30;119.22;;;18.00;76.80;;;;;;5111372;27;20028;-67
2022/12/05 11:14:21;;;;;;;195.80;120.00;;;18.10;75.00;;;;;;5115863;27;20024;-67
2022/12/05 11:16:53;;;;;;;206.82;121.53;;;18.00;75.20;;;;;;5109721;27;20465;-67
2022/12/05 11:19:21;;;;;;;208.82;122.07;;;17.70;75.00;;;;;;5116946;28;20072;-67
2022/12/05 11:21:51;;;;;;;210.82;124.53;;;17.50;77.10;;;;;;5116355;28;20103;-67
2022/12/05 11:24:32;;;;;;;204.02;124.47;;;17.20;76.80;;;;;;5113994;28;20016;-67
2022/12/05 11:27:19;;;;;;;;;;;17.00;78.10;;;;;;5113640;28;20051;-67
2022/12/05 11:30:08;;;;;;;201.95;122.45;;;16.60;79.00;;;;;;5115141;28;19908;-67
2022/12/05 11:32:34;;;;;;;192.40;117.80;;;16.40;81.50;;;;;;5109566;28;20431;-67
2022/12/05 11:35:10;;;;;;;198.45;123.30;;;16.50;82.20;;;;;;5112808;28;20049;-67
2022/12/05 11:37:59;;;;;;;222.07;124.47;;;16.40;80.80;;;;;;5114407;28;20047;-67
2022/12/05 11:40:28;;;;;;;199.98;118.32;;;16.20;81.40;;;;;;5115626;28;20024;-67
2022/12/05 11:43:42;;;;;;;192.80;119.35;;;16.60;83.30;;;;;;5109026;28;20388;-67
2022/12/05 11:46:30;;;;;;;187.50;117.85;;;17.10;79.50;;;;;;5095393;28;20112;-67
2022/12/05 11:49:21;;;;;;;182.82;117.10;;;17.20;79.10;;;;;;5096025;28;20049;-67
2022/12/05 11:52:06;;;;;;;179.88;113.90;;;16.80;80.00;;;;;;5103205;28;20050;-67
2022/12/05 11:55:04;;;;;;;184.57;115.20;;;16.70;80.00;;;;;;5106328;28;20051;-67
2022/12/05 12:01:34;;;;;;;194.00;115.28;;;16.60;80.90;;;;;;5113359;28;20078;-67
2022/12/05 12:04:24;;;;;;;196.05;115.43;;;16.50;81.00;;;;;;5115649;28;20373;-67
2022/12/05 12:07:08;;;;;;;179.18;113.68;;;16.40;82.20;;;;;;5112632;28;20131;-67
2022/12/05 12:10:02;;;;;;;178.88;111.93;;;16.20;82.30;;;;;;5098419;28;20034;-71
2022/12/05 12:12:49;;;;;;;190.13;114.80;;;16.20;84.10;;;;;;5101256;28;20020;-71
2022/12/05 12:15:48;;;;;;;181.23;111.82;;;16.20;84.00;;;;;;5114218;27;20031;-71
2022/12/05 12:18:39;;;;;;;186.10;112.95;;;16.30;84.40;;;;;;5112467;28;20028;-71
2022/12/05 12:21:16;;;;;;;189.55;111.45;;;16.40;85.00;;;;;;5101891;27;20032;-72
2022/12/05 12:24:15;;;;;;;191.13;116.10;;;16.60;83.50;;;;;;5107928;27;20019;-71
2022/12/05 12:27:14;;;;;;;173.43;108.28;;;16.50;83.20;;;;;;5101109;27;20024;-72
2022/12/05 12:29:58;;;;;;;179.65;110.07;;;16.70;83.20;;;;;;5110135;27;20035;-71
2022/12/05 12:32:46;;;;;;;183.43;109.70;;;16.80;83.30;;;;;;5105288;27;20051;-72
2022/12/05 12:36:14;;;;;;;190.45;110.95;;;17.00;83.00;;;;;;5085662;28;20098;-72
2022/12/05 12:39:16;;;;;;;176.88;97.88;;;16.90;82.70;;;;;;5025807;28;20040;-70
2022/12/05 12:41:53;;;;;;;174.80;103.88;;;16.60;83.90;;;;;;5021263;28;20098;-70
2022/12/05 12:44:40;;;;;;;170.75;97.20;;;16.70;83.20;;;;;;5042929;28;20113;-70
2022/12/05 12:47:22;;;;;;;178.55;105.75;;;16.70;82.20;;;;;;5022835;28;20133;-71
2022/12/05 12:50:13;;;;;;;191.07;106.63;;;16.70;83.00;;;;;;5021377;28;20037;-70
2022/12/05 12:53:06;;;;;;;194.23;112.47;;;16.80;83.40;;;;;;5029245;28;20574;-70
2022/12/05 12:56:00;;;;;;;183.10;109.00;;;16.60;82.70;;;;;;5029363;28;20037;-70